sensor_id;sensor_type;location;lat;lon;timestamp;temperature;humidity
11144;DHT22;5626;44.730;10.276;2022-08-07T00:01:16;27.50;76.10
11144;DHT22;5626;44.730;10.276;2022-08-07T00:03:48;27.50;76.20
11144;DHT22;5626;44.730;10.276;2022-08-07T00:06:18;27.50;76.30
11144;DHT22;5626;44.730;10.276;2022-08-07T00:08:47;27.60;76.50
11144;DHT22;5626;44.730;10.276;2022-08-07T00:11:17;27.60;76.40
11144;DHT22;5626;44.730;10.276;2022-08-07T00:13:48;27.60;76.60
11144;DHT22;5626;44.730;10.276;2022-08-07T00:16:18;27.70;76.60
11144;DHT22;5626;44.730;10.276;2022-08-07T00:18:49;27.70;76.70
11144;DHT22;5626;44.730;10.276;2022-08-07T00:21:19;27.70;76.90
11144;DHT22;5626;44.730;10.276;2022-08-07T00:23:48;27.60;77.10
11144;DHT22;5626;44.730;10.276;2022-08-07T00:26:18;27.60;77.40
11144;DHT22;5626;44.730;10.276;2022-08-07T00:28:48;27.50;77.70
11144;DHT22;5626;44.730;10.276;2022-08-07T00:31:18;27.50;78.10
11144;DHT22;5626;44.730;10.276;2022-08-07T00:33:49;27.50;78.50
11144;DHT22;5626;44.730;10.276;2022-08-07T00:36:18;27.40;78.90
11144;DHT22;5626;44.730;10.276;2022-08-07T00:38:48;27.40;79.50
11144;DHT22;5626;44.730;10.276;2022-08-07T00:41:24;27.30;80.20
11144;DHT22;5626;44.730;10.276;2022-08-07T00:43:54;27.20;81.00
11144;DHT22;5626;44.730;10.276;2022-08-07T00:46:24;27.20;81.70
11144;DHT22;5626;44.730;10.276;2022-08-07T00:48:55;27.10;81.70
11144;DHT22;5626;44.730;10.276;2022-08-07T00:51:29;27.10;81.30
11144;DHT22;5626;44.730;10.276;2022-08-07T00:53:59;27.10;80.10
11144;DHT22;5626;44.730;10.276;2022-08-07T00:56:28;27.10;79.40
11144;DHT22;5626;44.730;10.276;2022-08-07T00:58:58;27.10;78.90
11144;DHT22;5626;44.730;10.276;2022-08-07T01:01:28;27.10;78.60
11144;DHT22;5626;44.730;10.276;2022-08-07T01:04:04;27.10;78.30
11144;DHT22;5626;44.730;10.276;2022-08-07T01:06:33;27.10;79.30
11144;DHT22;5626;44.730;10.276;2022-08-07T01:09:03;27.00;80.50
11144;DHT22;5626;44.730;10.276;2022-08-07T01:11:33;26.90;81.00
11144;DHT22;5626;44.730;10.276;2022-08-07T01:14:03;26.80;81.40
11144;DHT22;5626;44.730;10.276;2022-08-07T01:16:33;26.70;81.70
11144;DHT22;5626;44.730;10.276;2022-08-07T01:19:05;26.60;82.60
11144;DHT22;5626;44.730;10.276;2022-08-07T01:21:37;26.50;83.50
11144;DHT22;5626;44.730;10.276;2022-08-07T01:24:07;26.40;84.20
11144;DHT22;5626;44.730;10.276;2022-08-07T01:26:37;26.30;84.40
11144;DHT22;5626;44.730;10.276;2022-08-07T01:29:08;26.30;84.60
11144;DHT22;5626;44.730;10.276;2022-08-07T01:31:38;26.20;84.80
11144;DHT22;5626;44.730;10.276;2022-08-07T01:34:11;26.10;85.10
11144;DHT22;5626;44.730;10.276;2022-08-07T01:36:44;26.10;85.70
11144;DHT22;5626;44.730;10.276;2022-08-07T01:39:18;26.10;85.60
11144;DHT22;5626;44.730;10.276;2022-08-07T01:42:01;26.10;86.00
11144;DHT22;5626;44.730;10.276;2022-08-07T01:44:33;26.00;85.80
11144;DHT22;5626;44.730;10.276;2022-08-07T01:47:03;26.00;85.30
11144;DHT22;5626;44.730;10.276;2022-08-07T01:49:34;26.00;85.20
11144;DHT22;5626;44.730;10.276;2022-08-07T01:52:07;26.00;84.80
11144;DHT22;5626;44.730;10.276;2022-08-07T01:54:39;26.10;84.60
11144;DHT22;5626;44.730;10.276;2022-08-07T01:57:16;26.10;84.70
11144;DHT22;5626;44.730;10.276;2022-08-07T01:59:53;26.10;84.60
11144;DHT22;5626;44.730;10.276;2022-08-07T02:02:28;26.10;84.60
11144;DHT22;5626;44.730;10.276;2022-08-07T02:05:02;26.20;84.80
11144;DHT22;5626;44.730;10.276;2022-08-07T02:07:40;26.20;84.90
11144;DHT22;5626;44.730;10.276;2022-08-07T02:10:12;26.20;85.90
11144;DHT22;5626;44.730;10.276;2022-08-07T02:12:44;26.10;85.20
11144;DHT22;5626;44.730;10.276;2022-08-07T02:15:22;26.10;84.50
11144;DHT22;5626;44.730;10.276;2022-08-07T02:17:54;26.00;84.50
11144;DHT22;5626;44.730;10.276;2022-08-07T02:20:24;26.00;84.60
11144;DHT22;5626;44.730;10.276;2022-08-07T02:22:59;26.00;84.50
11144;DHT22;5626;44.730;10.276;2022-08-07T02:25:32;26.00;84.60
11144;DHT22;5626;44.730;10.276;2022-08-07T02:28:03;26.00;84.70
11144;DHT22;5626;44.730;10.276;2022-08-07T02:30:35;25.90;84.70
11144;DHT22;5626;44.730;10.276;2022-08-07T02:33:06;25.80;84.60
11144;DHT22;5626;44.730;10.276;2022-08-07T02:35:37;25.80;84.90
11144;DHT22;5626;44.730;10.276;2022-08-07T02:38:11;25.70;85.00
11144;DHT22;5626;44.730;10.276;2022-08-07T02:40:41;25.60;85.60
11144;DHT22;5626;44.730;10.276;2022-08-07T02:43:13;25.60;85.70
11144;DHT22;5626;44.730;10.276;2022-08-07T02:45:45;25.50;85.90
11144;DHT22;5626;44.730;10.276;2022-08-07T02:48:15;25.50;86.40
11144;DHT22;5626;44.730;10.276;2022-08-07T02:50:49;25.30;87.10
11144;DHT22;5626;44.730;10.276;2022-08-07T02:53:23;25.20;87.20
11144;DHT22;5626;44.730;10.276;2022-08-07T02:55:57;25.10;87.30
11144;DHT22;5626;44.730;10.276;2022-08-07T02:58:28;25.20;87.10
11144;DHT22;5626;44.730;10.276;2022-08-07T03:01:01;25.20;86.90
11144;DHT22;5626;44.730;10.276;2022-08-07T03:03:33;25.20;86.60
11144;DHT22;5626;44.730;10.276;2022-08-07T03:06:04;25.30;86.30
11144;DHT22;5626;44.730;10.276;2022-08-07T03:08:37;25.30;86.20
11144;DHT22;5626;44.730;10.276;2022-08-07T03:11:08;25.30;86.00
11144;DHT22;5626;44.730;10.276;2022-08-07T03:13:41;25.30;85.80
11144;DHT22;5626;44.730;10.276;2022-08-07T03:16:11;25.40;85.60
11144;DHT22;5626;44.730;10.276;2022-08-07T03:18:42;25.50;85.40
11144;DHT22;5626;44.730;10.276;2022-08-07T03:21:12;25.50;85.00
11144;DHT22;5626;44.730;10.276;2022-08-07T03:23:45;25.50;84.80
11144;DHT22;5626;44.730;10.276;2022-08-07T03:26:18;25.50;84.80
11144;DHT22;5626;44.730;10.276;2022-08-07T03:28:50;25.50;85.00
11144;DHT22;5626;44.730;10.276;2022-08-07T03:31:21;25.60;84.50
11144;DHT22;5626;44.730;10.276;2022-08-07T03:33:57;25.70;84.30
11144;DHT22;5626;44.730;10.276;2022-08-07T03:36:31;25.70;84.20
11144;DHT22;5626;44.730;10.276;2022-08-07T03:39:07;25.70;83.90
11144;DHT22;5626;44.730;10.276;2022-08-07T03:41:39;25.70;83.90
11144;DHT22;5626;44.730;10.276;2022-08-07T03:44:10;25.70;83.90
11144;DHT22;5626;44.730;10.276;2022-08-07T03:46:40;25.60;83.90
11144;DHT22;5626;44.730;10.276;2022-08-07T03:49:10;25.60;83.90
11144;DHT22;5626;44.730;10.276;2022-08-07T03:51:42;25.60;84.00
11144;DHT22;5626;44.730;10.276;2022-08-07T03:54:13;25.70;84.00
11144;DHT22;5626;44.730;10.276;2022-08-07T03:56:44;25.70;83.80
11144;DHT22;5626;44.730;10.276;2022-08-07T03:59:14;25.70;83.80
11144;DHT22;5626;44.730;10.276;2022-08-07T04:01:48;25.70;83.20
11144;DHT22;5626;44.730;10.276;2022-08-07T04:04:22;25.80;83.30
11144;DHT22;5626;44.730;10.276;2022-08-07T04:06:57;25.80;85.30
11144;DHT22;5626;44.730;10.276;2022-08-07T04:09:30;25.80;87.00
11144;DHT22;5626;44.730;10.276;2022-08-07T04:12:00;25.80;88.70
11144;DHT22;5626;44.730;10.276;2022-08-07T04:14:31;25.70;88.50
11144;DHT22;5626;44.730;10.276;2022-08-07T04:17:00;25.70;89.50
11144;DHT22;5626;44.730;10.276;2022-08-07T04:19:30;25.60;90.20
11144;DHT22;5626;44.730;10.276;2022-08-07T04:22:01;25.50;91.40
11144;DHT22;5626;44.730;10.276;2022-08-07T04:24:36;25.50;92.00
11144;DHT22;5626;44.730;10.276;2022-08-07T04:27:08;25.40;91.80
11144;DHT22;5626;44.730;10.276;2022-08-07T04:29:38;25.30;92.30
11144;DHT22;5626;44.730;10.276;2022-08-07T04:32:08;25.20;92.50
11144;DHT22;5626;44.730;10.276;2022-08-07T04:34:38;25.10;93.10
11144;DHT22;5626;44.730;10.276;2022-08-07T04:37:09;25.00;93.40
11144;DHT22;5626;44.730;10.276;2022-08-07T04:39:41;24.90;93.90
11144;DHT22;5626;44.730;10.276;2022-08-07T04:42:11;24.80;94.40
11144;DHT22;5626;44.730;10.276;2022-08-07T04:44:41;24.80;94.60
11144;DHT22;5626;44.730;10.276;2022-08-07T04:47:14;24.80;94.80
11144;DHT22;5626;44.730;10.276;2022-08-07T04:49:54;24.70;95.10
11144;DHT22;5626;44.730;10.276;2022-08-07T04:52:32;24.70;95.50
11144;DHT22;5626;44.730;10.276;2022-08-07T04:55:13;24.70;95.90
11144;DHT22;5626;44.730;10.276;2022-08-07T04:57:48;24.80;96.40
11144;DHT22;5626;44.730;10.276;2022-08-07T05:00:25;24.80;96.10
11144;DHT22;5626;44.730;10.276;2022-08-07T05:03:06;24.70;96.70
11144;DHT22;5626;44.730;10.276;2022-08-07T05:05:44;24.70;96.50
11144;DHT22;5626;44.730;10.276;2022-08-07T05:08:23;24.70;96.00
11144;DHT22;5626;44.730;10.276;2022-08-07T05:11:00;24.60;96.00
11144;DHT22;5626;44.730;10.276;2022-08-07T05:13:36;24.50;95.80
11144;DHT22;5626;44.730;10.276;2022-08-07T05:16:09;24.50;96.30
11144;DHT22;5626;44.730;10.276;2022-08-07T05:18:47;24.50;96.50
11144;DHT22;5626;44.730;10.276;2022-08-07T05:21:22;24.40;96.60
11144;DHT22;5626;44.730;10.276;2022-08-07T05:23:57;24.40;96.80
11144;DHT22;5626;44.730;10.276;2022-08-07T05:26:31;24.30;97.30
11144;DHT22;5626;44.730;10.276;2022-08-07T05:29:07;24.30;97.80
11144;DHT22;5626;44.730;10.276;2022-08-07T05:31:39;24.30;97.90
11144;DHT22;5626;44.730;10.276;2022-08-07T05:34:15;24.20;98.00
11144;DHT22;5626;44.730;10.276;2022-08-07T05:36:52;24.20;98.10
11144;DHT22;5626;44.730;10.276;2022-08-07T05:39:44;24.20;98.20
11144;DHT22;5626;44.730;10.276;2022-08-07T05:42:16;24.20;98.60
11144;DHT22;5626;44.730;10.276;2022-08-07T05:44:46;24.20;98.80
11144;DHT22;5626;44.730;10.276;2022-08-07T05:47:16;24.30;99.00
11144;DHT22;5626;44.730;10.276;2022-08-07T05:49:50;24.30;99.20
11144;DHT22;5626;44.730;10.276;2022-08-07T05:52:23;24.30;98.70
11144;DHT22;5626;44.730;10.276;2022-08-07T05:54:53;24.20;98.80
11144;DHT22;5626;44.730;10.276;2022-08-07T05:57:27;24.20;98.90
11144;DHT22;5626;44.730;10.276;2022-08-07T05:59:58;24.10;99.00
11144;DHT22;5626;44.730;10.276;2022-08-07T06:02:39;24.20;99.30
11144;DHT22;5626;44.730;10.276;2022-08-07T06:05:13;24.20;99.80
11144;DHT22;5626;44.730;10.276;2022-08-07T06:07:49;24.30;99.90
11144;DHT22;5626;44.730;10.276;2022-08-07T06:10:19;24.30;99.90
11144;DHT22;5626;44.730;10.276;2022-08-07T06:12:51;24.40;99.90
11144;DHT22;5626;44.730;10.276;2022-08-07T06:15:21;24.40;99.90
11144;DHT22;5626;44.730;10.276;2022-08-07T06:17:51;24.50;99.90
11144;DHT22;5626;44.730;10.276;2022-08-07T06:20:21;24.50;99.90
11144;DHT22;5626;44.730;10.276;2022-08-07T06:22:52;24.50;99.90
11144;DHT22;5626;44.730;10.276;2022-08-07T06:25:36;24.50;99.90
11144;DHT22;5626;44.730;10.276;2022-08-07T06:28:10;24.50;99.90
11144;DHT22;5626;44.730;10.276;2022-08-07T06:30:40;24.50;99.90
11144;DHT22;5626;44.730;10.276;2022-08-07T06:33:18;24.50;99.90
11144;DHT22;5626;44.730;10.276;2022-08-07T06:35:48;24.50;99.90
11144;DHT22;5626;44.730;10.276;2022-08-07T06:38:18;24.50;99.90
11144;DHT22;5626;44.730;10.276;2022-08-07T06:40:52;24.50;99.90
11144;DHT22;5626;44.730;10.276;2022-08-07T06:43:28;24.50;99.90
11144;DHT22;5626;44.730;10.276;2022-08-07T06:46:11;24.50;99.90
11144;DHT22;5626;44.730;10.276;2022-08-07T06:48:42;24.50;99.90
11144;DHT22;5626;44.730;10.276;2022-08-07T06:51:19;24.50;99.90
11144;DHT22;5626;44.730;10.276;2022-08-07T06:53:52;24.50;99.90
11144;DHT22;5626;44.730;10.276;2022-08-07T06:56:24;24.30;99.90
11144;DHT22;5626;44.730;10.276;2022-08-07T06:59:17;24.20;99.90
11144;DHT22;5626;44.730;10.276;2022-08-07T07:01:55;24.30;99.90
11144;DHT22;5626;44.730;10.276;2022-08-07T07:04:26;24.40;99.90
11144;DHT22;5626;44.730;10.276;2022-08-07T07:06:59;24.50;99.90
11144;DHT22;5626;44.730;10.276;2022-08-07T07:09:30;24.50;99.90
11144;DHT22;5626;44.730;10.276;2022-08-07T07:12:15;24.50;99.90
11144;DHT22;5626;44.730;10.276;2022-08-07T07:14:57;24.50;99.90
11144;DHT22;5626;44.730;10.276;2022-08-07T07:17:34;24.50;99.90
11144;DHT22;5626;44.730;10.276;2022-08-07T07:20:10;24.50;99.90
11144;DHT22;5626;44.730;10.276;2022-08-07T07:22:41;24.50;99.90
11144;DHT22;5626;44.730;10.276;2022-08-07T07:25:13;24.40;99.90
11144;DHT22;5626;44.730;10.276;2022-08-07T07:27:49;24.50;99.90
11144;DHT22;5626;44.730;10.276;2022-08-07T07:30:24;24.50;99.90
11144;DHT22;5626;44.730;10.276;2022-08-07T07:32:56;24.60;99.90
11144;DHT22;5626;44.730;10.276;2022-08-07T07:35:29;24.70;99.90
11144;DHT22;5626;44.730;10.276;2022-08-07T07:38:01;24.80;99.90
11144;DHT22;5626;44.730;10.276;2022-08-07T07:40:33;24.80;99.90
11144;DHT22;5626;44.730;10.276;2022-08-07T07:43:04;24.90;99.90
11144;DHT22;5626;44.730;10.276;2022-08-07T07:45:38;25.00;99.90
11144;DHT22;5626;44.730;10.276;2022-08-07T07:48:10;25.10;99.90
11144;DHT22;5626;44.730;10.276;2022-08-07T07:50:42;25.10;99.80
11144;DHT22;5626;44.730;10.276;2022-08-07T07:53:17;25.20;99.70
11144;DHT22;5626;44.730;10.276;2022-08-07T07:55:50;25.20;99.70
11144;DHT22;5626;44.730;10.276;2022-08-07T07:58:20;25.30;99.60
11144;DHT22;5626;44.730;10.276;2022-08-07T08:00:52;25.30;99.40
11144;DHT22;5626;44.730;10.276;2022-08-07T08:03:23;25.40;99.70
11144;DHT22;5626;44.730;10.276;2022-08-07T08:05:53;25.50;99.90
11144;DHT22;5626;44.730;10.276;2022-08-07T08:08:25;25.50;99.60
11144;DHT22;5626;44.730;10.276;2022-08-07T08:10:56;25.60;99.10
11144;DHT22;5626;44.730;10.276;2022-08-07T08:13:28;25.60;99.20
11144;DHT22;5626;44.730;10.276;2022-08-07T08:16:00;25.70;99.40
11144;DHT22;5626;44.730;10.276;2022-08-07T08:18:31;25.70;99.10
11144;DHT22;5626;44.730;10.276;2022-08-07T08:21:04;25.70;98.70
11144;DHT22;5626;44.730;10.276;2022-08-07T08:23:56;25.60;98.60
11144;DHT22;5626;44.730;10.276;2022-08-07T08:26:43;25.50;98.60
11144;DHT22;5626;44.730;10.276;2022-08-07T08:29:32;25.50;99.00
11144;DHT22;5626;44.730;10.276;2022-08-07T08:32:07;25.50;98.80
11144;DHT22;5626;44.730;10.276;2022-08-07T08:34:39;25.50;99.00
11144;DHT22;5626;44.730;10.276;2022-08-07T08:37:10;25.40;98.80
11144;DHT22;5626;44.730;10.276;2022-08-07T08:39:42;25.40;99.10
11144;DHT22;5626;44.730;10.276;2022-08-07T08:42:21;25.50;99.10
11144;DHT22;5626;44.730;10.276;2022-08-07T08:45:02;25.50;98.60
11144;DHT22;5626;44.730;10.276;2022-08-07T08:47:42;25.60;98.90
11144;DHT22;5626;44.730;10.276;2022-08-07T08:50:19;25.60;98.90
11144;DHT22;5626;44.730;10.276;2022-08-07T08:52:54;25.60;99.10
11144;DHT22;5626;44.730;10.276;2022-08-07T08:55:31;25.70;98.50
11144;DHT22;5626;44.730;10.276;2022-08-07T08:58:07;25.70;98.30
11144;DHT22;5626;44.730;10.276;2022-08-07T09:00:42;25.90;97.80
11144;DHT22;5626;44.730;10.276;2022-08-07T09:03:22;25.90;97.40
11144;DHT22;5626;44.730;10.276;2022-08-07T09:05:57;26.00;97.30
11144;DHT22;5626;44.730;10.276;2022-08-07T09:08:39;26.10;97.30
11144;DHT22;5626;44.730;10.276;2022-08-07T09:11:17;26.30;97.30
11144;DHT22;5626;44.730;10.276;2022-08-07T09:13:57;26.40;97.00
11144;DHT22;5626;44.730;10.276;2022-08-07T09:16:39;26.60;96.40
11144;DHT22;5626;44.730;10.276;2022-08-07T09:19:25;26.90;96.10
11144;DHT22;5626;44.730;10.276;2022-08-07T09:22:09;27.20;95.80
11144;DHT22;5626;44.730;10.276;2022-08-07T09:24:46;27.30;95.70
11144;DHT22;5626;44.730;10.276;2022-08-07T09:27:27;27.30;95.10
11144;DHT22;5626;44.730;10.276;2022-08-07T09:30:03;27.40;95.00
11144;DHT22;5626;44.730;10.276;2022-08-07T09:32:54;27.50;94.40
11144;DHT22;5626;44.730;10.276;2022-08-07T09:35:35;27.50;93.80
11144;DHT22;5626;44.730;10.276;2022-08-07T09:38:13;27.60;93.90
11144;DHT22;5626;44.730;10.276;2022-08-07T09:40:55;27.50;93.80
11144;DHT22;5626;44.730;10.276;2022-08-07T09:43:41;27.50;93.90
11144;DHT22;5626;44.730;10.276;2022-08-07T09:46:25;27.50;93.70
11144;DHT22;5626;44.730;10.276;2022-08-07T09:49:04;27.40;94.00
11144;DHT22;5626;44.730;10.276;2022-08-07T09:51:49;27.40;94.30
11144;DHT22;5626;44.730;10.276;2022-08-07T09:54:34;27.40;94.10
11144;DHT22;5626;44.730;10.276;2022-08-07T09:57:21;27.40;94.00
11144;DHT22;5626;44.730;10.276;2022-08-07T10:00:07;27.40;94.20
11144;DHT22;5626;44.730;10.276;2022-08-07T10:03:04;27.40;94.20
11144;DHT22;5626;44.730;10.276;2022-08-07T10:05:55;27.50;94.50
11144;DHT22;5626;44.730;10.276;2022-08-07T10:08:56;27.60;94.00
11144;DHT22;5626;44.730;10.276;2022-08-07T10:11:41;27.70;93.90
11144;DHT22;5626;44.730;10.276;2022-08-07T10:14:35;27.80;93.50
11144;DHT22;5626;44.730;10.276;2022-08-07T10:17:25;27.90;93.30
11144;DHT22;5626;44.730;10.276;2022-08-07T10:20:13;28.10;93.40
11144;DHT22;5626;44.730;10.276;2022-08-07T10:23:01;28.30;92.80
11144;DHT22;5626;44.730;10.276;2022-08-07T10:25:51;28.40;92.40
11144;DHT22;5626;44.730;10.276;2022-08-07T10:28:36;28.70;90.90
11144;DHT22;5626;44.730;10.276;2022-08-07T10:31:25;28.80;90.90
11144;DHT22;5626;44.730;10.276;2022-08-07T10:34:14;28.80;90.90
11144;DHT22;5626;44.730;10.276;2022-08-07T10:36:55;28.90;91.00
11144;DHT22;5626;44.730;10.276;2022-08-07T10:39:39;28.90;91.50
11144;DHT22;5626;44.730;10.276;2022-08-07T10:42:22;29.10;90.80
11144;DHT22;5626;44.730;10.276;2022-08-07T10:45:00;29.20;90.60
11144;DHT22;5626;44.730;10.276;2022-08-07T10:47:39;29.40;90.60
11144;DHT22;5626;44.730;10.276;2022-08-07T10:50:17;29.50;90.00
11144;DHT22;5626;44.730;10.276;2022-08-07T10:52:58;29.50;90.00
11144;DHT22;5626;44.730;10.276;2022-08-07T10:55:35;29.40;90.40
11144;DHT22;5626;44.730;10.276;2022-08-07T10:58:19;29.40;90.80
11144;DHT22;5626;44.730;10.276;2022-08-07T11:01:12;29.40;90.50
11144;DHT22;5626;44.730;10.276;2022-08-07T11:03:55;29.40;90.30
11144;DHT22;5626;44.730;10.276;2022-08-07T11:06:39;29.40;90.00
11144;DHT22;5626;44.730;10.276;2022-08-07T11:09:17;29.40;89.90
11144;DHT22;5626;44.730;10.276;2022-08-07T11:11:55;29.50;89.50
11144;DHT22;5626;44.730;10.276;2022-08-07T11:14:34;29.40;89.10
11144;DHT22;5626;44.730;10.276;2022-08-07T11:17:12;29.50;89.90
11144;DHT22;5626;44.730;10.276;2022-08-07T11:19:48;29.50;89.90
11144;DHT22;5626;44.730;10.276;2022-08-07T11:22:26;29.50;89.00
11144;DHT22;5626;44.730;10.276;2022-08-07T11:25:02;29.50;88.80
11144;DHT22;5626;44.730;10.276;2022-08-07T11:27:42;29.60;88.40
11144;DHT22;5626;44.730;10.276;2022-08-07T11:30:17;29.60;88.40
11144;DHT22;5626;44.730;10.276;2022-08-07T11:32:53;29.70;87.60
11144;DHT22;5626;44.730;10.276;2022-08-07T11:35:27;29.70;87.70
11144;DHT22;5626;44.730;10.276;2022-08-07T11:38:07;29.80;87.60
11144;DHT22;5626;44.730;10.276;2022-08-07T11:40:45;29.90;87.50
11144;DHT22;5626;44.730;10.276;2022-08-07T11:43:21;30.00;87.30
11144;DHT22;5626;44.730;10.276;2022-08-07T11:46:13;30.20;86.30
11144;DHT22;5626;44.730;10.276;2022-08-07T11:48:57;30.30;86.20
11144;DHT22;5626;44.730;10.276;2022-08-07T11:51:56;30.40;85.10
11144;DHT22;5626;44.730;10.276;2022-08-07T11:54:40;30.60;83.90
11144;DHT22;5626;44.730;10.276;2022-08-07T11:57:18;30.60;83.50
11144;DHT22;5626;44.730;10.276;2022-08-07T12:00:00;30.70;84.70
11144;DHT22;5626;44.730;10.276;2022-08-07T12:06:02;30.80;84.10
11144;DHT22;5626;44.730;10.276;2022-08-07T12:08:40;30.90;83.50
11144;DHT22;5626;44.730;10.276;2022-08-07T12:11:17;30.90;84.10
11144;DHT22;5626;44.730;10.276;2022-08-07T12:13:55;30.90;83.30
11144;DHT22;5626;44.730;10.276;2022-08-07T12:16:27;30.80;83.70
11144;DHT22;5626;44.730;10.276;2022-08-07T12:19:04;30.70;83.50
11144;DHT22;5626;44.730;10.276;2022-08-07T12:21:48;30.70;84.00
11144;DHT22;5626;44.730;10.276;2022-08-07T12:24:26;30.70;84.50
11144;DHT22;5626;44.730;10.276;2022-08-07T12:27:03;30.70;84.30
11144;DHT22;5626;44.730;10.276;2022-08-07T12:29:41;30.80;83.60
11144;DHT22;5626;44.730;10.276;2022-08-07T12:32:19;31.00;83.40
11144;DHT22;5626;44.730;10.276;2022-08-07T12:34:50;31.20;83.60
11144;DHT22;5626;44.730;10.276;2022-08-07T12:37:23;31.40;82.30
11144;DHT22;5626;44.730;10.276;2022-08-07T12:39:55;31.50;81.60
11144;DHT22;5626;44.730;10.276;2022-08-07T12:42:27;31.60;81.50
11144;DHT22;5626;44.730;10.276;2022-08-07T12:45:02;31.70;80.70
11144;DHT22;5626;44.730;10.276;2022-08-07T12:47:39;31.80;80.90
11144;DHT22;5626;44.730;10.276;2022-08-07T12:50:17;31.70;80.90
11144;DHT22;5626;44.730;10.276;2022-08-07T12:53:00;31.60;80.70
11144;DHT22;5626;44.730;10.276;2022-08-07T12:55:35;31.70;80.10
11144;DHT22;5626;44.730;10.276;2022-08-07T12:58:07;31.70;80.30
11144;DHT22;5626;44.730;10.276;2022-08-07T13:00:47;31.80;79.60
11144;DHT22;5626;44.730;10.276;2022-08-07T13:03:45;31.80;79.80
11144;DHT22;5626;44.730;10.276;2022-08-07T13:06:28;31.80;79.70
11144;DHT22;5626;44.730;10.276;2022-08-07T13:09:12;31.80;78.20
11144;DHT22;5626;44.730;10.276;2022-08-07T13:11:52;31.80;78.70
11144;DHT22;5626;44.730;10.276;2022-08-07T13:14:33;31.80;79.40
11144;DHT22;5626;44.730;10.276;2022-08-07T13:17:09;31.90;78.50
11144;DHT22;5626;44.730;10.276;2022-08-07T13:19:46;31.90;78.20
11144;DHT22;5626;44.730;10.276;2022-08-07T13:22:25;31.90;79.20
11144;DHT22;5626;44.730;10.276;2022-08-07T13:25:03;31.90;78.50
11144;DHT22;5626;44.730;10.276;2022-08-07T13:27:36;31.90;79.10
11144;DHT22;5626;44.730;10.276;2022-08-07T13:30:08;32.00;78.60
11144;DHT22;5626;44.730;10.276;2022-08-07T13:32:43;32.10;78.70
11144;DHT22;5626;44.730;10.276;2022-08-07T13:35:27;32.10;78.20
11144;DHT22;5626;44.730;10.276;2022-08-07T13:38:05;32.20;79.30
11144;DHT22;5626;44.730;10.276;2022-08-07T13:40:45;32.30;77.20
11144;DHT22;5626;44.730;10.276;2022-08-07T13:43:19;32.30;76.30
11144;DHT22;5626;44.730;10.276;2022-08-07T13:45:53;32.40;77.60
11144;DHT22;5626;44.730;10.276;2022-08-07T13:48:25;32.30;77.30
11144;DHT22;5626;44.730;10.276;2022-08-07T13:50:57;32.30;77.00
11144;DHT22;5626;44.730;10.276;2022-08-07T13:53:33;32.20;77.30
11144;DHT22;5626;44.730;10.276;2022-08-07T13:56:05;32.30;77.40
11144;DHT22;5626;44.730;10.276;2022-08-07T13:58:38;32.30;77.60
11144;DHT22;5626;44.730;10.276;2022-08-07T14:01:27;32.40;78.20
11144;DHT22;5626;44.730;10.276;2022-08-07T14:04:00;32.40;77.10
11144;DHT22;5626;44.730;10.276;2022-08-07T14:06:32;32.40;77.00
11144;DHT22;5626;44.730;10.276;2022-08-07T14:09:03;32.40;77.10
11144;DHT22;5626;44.730;10.276;2022-08-07T14:11:44;32.40;77.10
11144;DHT22;5626;44.730;10.276;2022-08-07T14:14:15;32.40;75.60
11144;DHT22;5626;44.730;10.276;2022-08-07T14:16:47;32.40;76.50
11144;DHT22;5626;44.730;10.276;2022-08-07T14:19:23;32.40;76.00
11144;DHT22;5626;44.730;10.276;2022-08-07T14:21:58;32.50;76.00
11144;DHT22;5626;44.730;10.276;2022-08-07T14:24:34;32.50;76.40
11144;DHT22;5626;44.730;10.276;2022-08-07T14:27:09;32.60;75.80
11144;DHT22;5626;44.730;10.276;2022-08-07T14:29:41;32.50;75.00
11144;DHT22;5626;44.730;10.276;2022-08-07T14:32:12;32.50;74.20
11144;DHT22;5626;44.730;10.276;2022-08-07T14:34:44;32.50;74.90
11144;DHT22;5626;44.730;10.276;2022-08-07T14:37:16;32.50;75.00
11144;DHT22;5626;44.730;10.276;2022-08-07T14:39:47;32.50;74.40
11144;DHT22;5626;44.730;10.276;2022-08-07T14:42:23;32.40;74.00
11144;DHT22;5626;44.730;10.276;2022-08-07T14:44:57;32.40;74.80
11144;DHT22;5626;44.730;10.276;2022-08-07T14:47:30;32.40;74.90
11144;DHT22;5626;44.730;10.276;2022-08-07T14:50:05;32.40;74.70
11144;DHT22;5626;44.730;10.276;2022-08-07T14:52:36;32.40;73.90
11144;DHT22;5626;44.730;10.276;2022-08-07T14:55:08;32.40;73.70
11144;DHT22;5626;44.730;10.276;2022-08-07T14:57:46;32.30;75.00
11144;DHT22;5626;44.730;10.276;2022-08-07T15:00:25;32.10;74.80
11144;DHT22;5626;44.730;10.276;2022-08-07T15:02:57;31.90;74.30
11144;DHT22;5626;44.730;10.276;2022-08-07T15:05:27;31.70;74.40
11144;DHT22;5626;44.730;10.276;2022-08-07T15:07:58;31.60;74.60
11144;DHT22;5626;44.730;10.276;2022-08-07T15:10:32;31.70;74.60
11144;DHT22;5626;44.730;10.276;2022-08-07T15:13:09;31.70;74.50
11144;DHT22;5626;44.730;10.276;2022-08-07T15:15:47;31.70;75.00
11144;DHT22;5626;44.730;10.276;2022-08-07T15:18:21;31.80;73.90
11144;DHT22;5626;44.730;10.276;2022-08-07T15:20:51;31.90;73.60
11144;DHT22;5626;44.730;10.276;2022-08-07T15:23:26;31.90;74.40
11144;DHT22;5626;44.730;10.276;2022-08-07T15:25:57;31.90;73.10
11144;DHT22;5626;44.730;10.276;2022-08-07T15:28:29;31.90;72.60
11144;DHT22;5626;44.730;10.276;2022-08-07T15:31:11;32.00;72.30
11144;DHT22;5626;44.730;10.276;2022-08-07T15:33:43;32.10;71.40
11144;DHT22;5626;44.730;10.276;2022-08-07T15:36:15;32.10;70.40
11144;DHT22;5626;44.730;10.276;2022-08-07T15:38:45;32.10;70.90
11144;DHT22;5626;44.730;10.276;2022-08-07T15:41:16;32.10;71.30
11144;DHT22;5626;44.730;10.276;2022-08-07T15:43:57;32.00;70.50
11144;DHT22;5626;44.730;10.276;2022-08-07T15:46:28;31.90;69.50
11144;DHT22;5626;44.730;10.276;2022-08-07T15:49:01;31.80;69.70
11144;DHT22;5626;44.730;10.276;2022-08-07T15:51:33;31.70;68.90
11144;DHT22;5626;44.730;10.276;2022-08-07T15:54:05;31.60;69.20
11144;DHT22;5626;44.730;10.276;2022-08-07T15:56:37;31.60;70.10
11144;DHT22;5626;44.730;10.276;2022-08-07T15:59:12;31.60;70.00
11144;DHT22;5626;44.730;10.276;2022-08-07T16:01:47;31.50;70.30
11144;DHT22;5626;44.730;10.276;2022-08-07T16:04:18;31.40;69.60
11144;DHT22;5626;44.730;10.276;2022-08-07T16:06:51;31.30;69.40
11144;DHT22;5626;44.730;10.276;2022-08-07T16:09:28;31.20;68.90
11144;DHT22;5626;44.730;10.276;2022-08-07T16:12:06;31.20;70.20
11144;DHT22;5626;44.730;10.276;2022-08-07T16:14:58;31.10;71.20
11144;DHT22;5626;44.730;10.276;2022-08-07T16:17:46;31.10;72.00
11144;DHT22;5626;44.730;10.276;2022-08-07T16:20:45;31.00;72.10
11144;DHT22;5626;44.730;10.276;2022-08-07T16:23:26;30.90;72.70
11144;DHT22;5626;44.730;10.276;2022-08-07T16:26:06;30.80;72.70